sensor_id;sensor_type;location;lat;lon;timestamp;temperature;humidity
7174;DHT22;3628;48.654;8.932;2023-02-28T00:00:18;-1.70;99.90
7174;DHT22;3628;48.654;8.932;2023-02-28T00:02:45;-1.70;99.90
7174;DHT22;3628;48.654;8.932;2023-02-28T00:05:13;-1.70;99.90
7174;DHT22;3628;48.654;8.932;2023-02-28T00:07:39;-1.70;99.90
7174;DHT22;3628;48.654;8.932;2023-02-28T00:10:06;-1.70;99.90
7174;DHT22;3628;48.654;8.932;2023-02-28T00:12:33;-1.70;99.90
7174;DHT22;3628;48.654;8.932;2023-02-28T00:14:59;-1.80;99.90
7174;DHT22;3628;48.654;8.932;2023-02-28T00:17:25;-1.80;99.90
7174;DHT22;3628;48.654;8.932;2023-02-28T00:19:51;-1.90;99.90
7174;DHT22;3628;48.654;8.932;2023-02-28T00:22:18;-2.00;99.90
7174;DHT22;3628;48.654;8.932;2023-02-28T00:24:44;-2.10;99.90
7174;DHT22;3628;48.654;8.932;2023-02-28T00:27:10;-2.20;99.90
7174;DHT22;3628;48.654;8.932;2023-02-28T00:29:36;-2.20;99.90
7174;DHT22;3628;48.654;8.932;2023-02-28T00:32:02;-2.30;99.90
7174;DHT22;3628;48.654;8.932;2023-02-28T00:34:28;-2.30;99.90
7174;DHT22;3628;48.654;8.932;2023-02-28T00:36:53;-2.40;99.90
7174;DHT22;3628;48.654;8.932;2023-02-28T00:39:19;-2.40;99.90
7174;DHT22;3628;48.654;8.932;2023-02-28T00:41:45;-2.50;99.90
7174;DHT22;3628;48.654;8.932;2023-02-28T00:44:10;-2.50;99.90
7174;DHT22;3628;48.654;8.932;2023-02-28T00:46:36;-2.50;99.90
7174;DHT22;3628;48.654;8.932;2023-02-28T00:49:02;-2.60;99.90
7174;DHT22;3628;48.654;8.932;2023-02-28T00:51:27;-2.60;99.90
7174;DHT22;3628;48.654;8.932;2023-02-28T00:53:53;-2.60;99.90
7174;DHT22;3628;48.654;8.932;2023-02-28T00:56:19;-2.60;99.90
7174;DHT22;3628;48.654;8.932;2023-02-28T00:58:44;-2.70;99.90
7174;DHT22;3628;48.654;8.932;2023-02-28T01:01:10;-2.70;99.90
7174;DHT22;3628;48.654;8.932;2023-02-28T01:03:35;-2.70;99.90
7174;DHT22;3628;48.654;8.932;2023-02-28T01:06:01;-2.70;99.90
7174;DHT22;3628;48.654;8.932;2023-02-28T01:08:26;-2.80;99.90
7174;DHT22;3628;48.654;8.932;2023-02-28T01:10:52;-2.70;99.90
7174;DHT22;3628;48.654;8.932;2023-02-28T01:13:18;-2.80;99.90
7174;DHT22;3628;48.654;8.932;2023-02-28T01:15:53;-2.80;99.90
7174;DHT22;3628;48.654;8.932;2023-02-28T01:18:19;-2.80;99.90
7174;DHT22;3628;48.654;8.932;2023-02-28T01:20:45;-2.90;99.90
7174;DHT22;3628;48.654;8.932;2023-02-28T01:23:11;-2.90;99.90
7174;DHT22;3628;48.654;8.932;2023-02-28T01:25:37;-2.90;99.90
7174;DHT22;3628;48.654;8.932;2023-02-28T01:28:03;-2.90;99.90
7174;DHT22;3628;48.654;8.932;2023-02-28T01:30:28;-2.90;99.90
7174;DHT22;3628;48.654;8.932;2023-02-28T01:32:54;-2.90;99.90
7174;DHT22;3628;48.654;8.932;2023-02-28T01:35:20;-2.90;99.90
7174;DHT22;3628;48.654;8.932;2023-02-28T01:37:45;-2.90;99.90
7174;DHT22;3628;48.654;8.932;2023-02-28T01:40:12;-2.80;99.90
7174;DHT22;3628;48.654;8.932;2023-02-28T01:42:38;-2.80;99.90
7174;DHT22;3628;48.654;8.932;2023-02-28T01:47:53;-2.90;99.90
7174;DHT22;3628;48.654;8.932;2023-02-28T01:50:24;-2.90;99.90
7174;DHT22;3628;48.654;8.932;2023-02-28T01:52:52;-2.90;99.90
7174;DHT22;3628;48.654;8.932;2023-02-28T01:55:20;-2.90;99.90
7174;DHT22;3628;48.654;8.932;2023-02-28T01:57:52;-2.90;99.90
7174;DHT22;3628;48.654;8.932;2023-02-28T02:00:22;-2.90;99.90
7174;DHT22;3628;48.654;8.932;2023-02-28T02:02:51;-2.90;99.90
7174;DHT22;3628;48.654;8.932;2023-02-28T02:05:26;-2.90;99.90
7174;DHT22;3628;48.654;8.932;2023-02-28T02:08:01;-2.90;99.90
7174;DHT22;3628;48.654;8.932;2023-02-28T02:10:42;-2.90;99.90
7174;DHT22;3628;48.654;8.932;2023-02-28T02:16:12;-2.90;99.90
7174;DHT22;3628;48.654;8.932;2023-02-28T02:18:54;-2.80;99.90
7174;DHT22;3628;48.654;8.932;2023-02-28T02:24:36;-2.80;99.90
7174;DHT22;3628;48.654;8.932;2023-02-28T02:27:27;-2.80;99.90
7174;DHT22;3628;48.654;8.932;2023-02-28T02:35:53;-2.80;99.90
7174;DHT22;3628;48.654;8.932;2023-02-28T02:38:33;-2.80;99.90
7174;DHT22;3628;48.654;8.932;2023-02-28T02:46:39;-2.70;99.90
7174;DHT22;3628;48.654;8.932;2023-02-28T02:49:09;-2.80;99.90
7174;DHT22;3628;48.654;8.932;2023-02-28T02:51:38;-2.80;99.90
7174;DHT22;3628;48.654;8.932;2023-02-28T02:54:08;-2.70;99.90
7174;DHT22;3628;48.654;8.932;2023-02-28T02:56:36;-2.80;99.90
7174;DHT22;3628;48.654;8.932;2023-02-28T02:59:07;-2.80;99.90
7174;DHT22;3628;48.654;8.932;2023-02-28T03:01:35;-2.80;99.90
7174;DHT22;3628;48.654;8.932;2023-02-28T03:04:16;-2.70;99.90
7174;DHT22;3628;48.654;8.932;2023-02-28T03:06:43;-2.70;99.90
7174;DHT22;3628;48.654;8.932;2023-02-28T03:09:09;-2.70;99.90
7174;DHT22;3628;48.654;8.932;2023-02-28T03:11:35;-2.60;99.90
7174;DHT22;3628;48.654;8.932;2023-02-28T03:14:32;-2.60;99.90
7174;DHT22;3628;48.654;8.932;2023-02-28T03:22:35;-2.50;99.90
7174;DHT22;3628;48.654;8.932;2023-02-28T03:25:12;-2.50;99.90
7174;DHT22;3628;48.654;8.932;2023-02-28T03:30:36;-2.50;99.90
7174;DHT22;3628;48.654;8.932;2023-02-28T03:33:08;-2.50;99.90
7174;DHT22;3628;48.654;8.932;2023-02-28T03:35:57;-2.50;99.90
7174;DHT22;3628;48.654;8.932;2023-02-28T03:38:31;-2.50;99.90
7174;DHT22;3628;48.654;8.932;2023-02-28T03:41:06;-2.40;99.90
7174;DHT22;3628;48.654;8.932;2023-02-28T03:43:36;-2.50;99.90
7174;DHT22;3628;48.654;8.932;2023-02-28T03:46:07;-2.50;99.90
7174;DHT22;3628;48.654;8.932;2023-02-28T03:48:41;-2.40;99.90
7174;DHT22;3628;48.654;8.932;2023-02-28T03:51:10;-2.40;99.90
7174;DHT22;3628;48.654;8.932;2023-02-28T03:53:52;-2.40;99.90
7174;DHT22;3628;48.654;8.932;2023-02-28T03:56:22;-2.40;99.90
7174;DHT22;3628;48.654;8.932;2023-02-28T04:01:43;-2.30;99.90
7174;DHT22;3628;48.654;8.932;2023-02-28T04:04:10;-2.30;99.90
7174;DHT22;3628;48.654;8.932;2023-02-28T04:06:36;-2.30;99.90
7174;DHT22;3628;48.654;8.932;2023-02-28T04:09:03;-2.30;99.90
7174;DHT22;3628;48.654;8.932;2023-02-28T04:14:10;-2.20;99.90
7174;DHT22;3628;48.654;8.932;2023-02-28T04:16:38;-2.20;99.90
7174;DHT22;3628;48.654;8.932;2023-02-28T04:19:05;-2.20;99.90
7174;DHT22;3628;48.654;8.932;2023-02-28T04:21:36;-2.20;99.90
7174;DHT22;3628;48.654;8.932;2023-02-28T04:24:03;-2.10;99.90
7174;DHT22;3628;48.654;8.932;2023-02-28T04:26:33;-2.10;99.90
7174;DHT22;3628;48.654;8.932;2023-02-28T04:28:59;-2.10;99.90
7174;DHT22;3628;48.654;8.932;2023-02-28T04:31:25;-2.10;99.90
7174;DHT22;3628;48.654;8.932;2023-02-28T04:33:51;-2.10;99.90
7174;DHT22;3628;48.654;8.932;2023-02-28T04:36:16;-2.10;99.90
7174;DHT22;3628;48.654;8.932;2023-02-28T04:38:45;-2.10;99.90
7174;DHT22;3628;48.654;8.932;2023-02-28T04:41:12;-2.10;99.90
7174;DHT22;3628;48.654;8.932;2023-02-28T04:43:37;-2.10;99.90
7174;DHT22;3628;48.654;8.932;2023-02-28T04:46:04;-2.10;99.90
7174;DHT22;3628;48.654;8.932;2023-02-28T04:48:32;-2.10;99.90
7174;DHT22;3628;48.654;8.932;2023-02-28T04:51:06;-2.10;99.90
7174;DHT22;3628;48.654;8.932;2023-02-28T04:53:32;-2.10;99.90
7174;DHT22;3628;48.654;8.932;2023-02-28T04:55:58;-2.10;99.90
7174;DHT22;3628;48.654;8.932;2023-02-28T04:58:24;-2.10;99.90
7174;DHT22;3628;48.654;8.932;2023-02-28T05:00:53;-2.10;99.90
7174;DHT22;3628;48.654;8.932;2023-02-28T05:03:20;-2.10;99.90
7174;DHT22;3628;48.654;8.932;2023-02-28T05:05:47;-2.00;99.90
7174;DHT22;3628;48.654;8.932;2023-02-28T05:08:13;-2.00;99.90
7174;DHT22;3628;48.654;8.932;2023-02-28T05:10:38;-2.00;99.90
7174;DHT22;3628;48.654;8.932;2023-02-28T05:13:04;-1.90;99.90
7174;DHT22;3628;48.654;8.932;2023-02-28T05:15:29;-1.90;99.90
7174;DHT22;3628;48.654;8.932;2023-02-28T05:17:55;-1.80;99.90
7174;DHT22;3628;48.654;8.932;2023-02-28T05:20:20;-1.90;99.90
7174;DHT22;3628;48.654;8.932;2023-02-28T05:22:46;-1.90;99.90
7174;DHT22;3628;48.654;8.932;2023-02-28T05:25:16;-1.90;99.90
7174;DHT22;3628;48.654;8.932;2023-02-28T05:27:43;-1.90;99.90
7174;DHT22;3628;48.654;8.932;2023-02-28T05:30:09;-1.90;99.90
7174;DHT22;3628;48.654;8.932;2023-02-28T05:32:37;-1.90;99.90
7174;DHT22;3628;48.654;8.932;2023-02-28T05:35:03;-1.90;99.90
7174;DHT22;3628;48.654;8.932;2023-02-28T05:37:28;-1.90;99.90
7174;DHT22;3628;48.654;8.932;2023-02-28T05:39:54;-1.90;99.90
7174;DHT22;3628;48.654;8.932;2023-02-28T05:42:19;-1.90;99.90
7174;DHT22;3628;48.654;8.932;2023-02-28T05:44:45;-1.90;99.90
7174;DHT22;3628;48.654;8.932;2023-02-28T05:47:11;-2.00;99.90
7174;DHT22;3628;48.654;8.932;2023-02-28T05:49:39;-1.90;99.90
7174;DHT22;3628;48.654;8.932;2023-02-28T05:52:05;-1.90;99.90
7174;DHT22;3628;48.654;8.932;2023-02-28T05:54:30;-1.90;99.90
7174;DHT22;3628;48.654;8.932;2023-02-28T05:56:56;-1.90;99.90
7174;DHT22;3628;48.654;8.932;2023-02-28T05:59:21;-1.90;99.90
7174;DHT22;3628;48.654;8.932;2023-02-28T06:01:47;-1.90;99.90
7174;DHT22;3628;48.654;8.932;2023-02-28T06:04:17;-1.90;99.90
7174;DHT22;3628;48.654;8.932;2023-02-28T06:06:48;-1.90;99.90
7174;DHT22;3628;48.654;8.932;2023-02-28T06:09:14;-1.90;99.90
7174;DHT22;3628;48.654;8.932;2023-02-28T06:11:40;-1.90;99.90
7174;DHT22;3628;48.654;8.932;2023-02-28T06:14:07;-1.90;99.90
7174;DHT22;3628;48.654;8.932;2023-02-28T06:16:37;-1.80;99.90
7174;DHT22;3628;48.654;8.932;2023-02-28T06:19:03;-1.80;99.90
7174;DHT22;3628;48.654;8.932;2023-02-28T06:21:29;-1.80;99.90
7174;DHT22;3628;48.654;8.932;2023-02-28T06:23:56;-1.90;99.90
7174;DHT22;3628;48.654;8.932;2023-02-28T06:26:22;-1.90;99.90
7174;DHT22;3628;48.654;8.932;2023-02-28T06:28:48;-1.90;99.90
7174;DHT22;3628;48.654;8.932;2023-02-28T06:31:16;-1.90;99.90
7174;DHT22;3628;48.654;8.932;2023-02-28T06:33:43;-2.00;99.90
7174;DHT22;3628;48.654;8.932;2023-02-28T06:36:11;-1.90;99.90
7174;DHT22;3628;48.654;8.932;2023-02-28T06:38:37;-1.90;99.90
7174;DHT22;3628;48.654;8.932;2023-02-28T06:41:03;-1.90;99.90
7174;DHT22;3628;48.654;8.932;2023-02-28T06:43:31;-1.90;99.90
7174;DHT22;3628;48.654;8.932;2023-02-28T06:45:58;-1.90;99.90
7174;DHT22;3628;48.654;8.932;2023-02-28T06:48:26;-1.90;99.90
7174;DHT22;3628;48.654;8.932;2023-02-28T06:50:51;-1.90;99.90
7174;DHT22;3628;48.654;8.932;2023-02-28T06:53:17;-1.90;99.90
7174;DHT22;3628;48.654;8.932;2023-02-28T06:55:42;-1.90;99.90
7174;DHT22;3628;48.654;8.932;2023-02-28T06:58:08;-1.90;99.90
7174;DHT22;3628;48.654;8.932;2023-02-28T07:00:42;-1.80;99.90
7174;DHT22;3628;48.654;8.932;2023-02-28T07:03:07;-1.80;99.90
7174;DHT22;3628;48.654;8.932;2023-02-28T07:05:35;-1.80;99.90
7174;DHT22;3628;48.654;8.932;2023-02-28T07:08:01;-1.70;99.90
7174;DHT22;3628;48.654;8.932;2023-02-28T07:10:27;-1.70;99.90
7174;DHT22;3628;48.654;8.932;2023-02-28T07:12:52;-1.70;99.90
7174;DHT22;3628;48.654;8.932;2023-02-28T07:15:18;-1.70;99.90
7174;DHT22;3628;48.654;8.932;2023-02-28T07:17:43;-1.70;99.90
7174;DHT22;3628;48.654;8.932;2023-02-28T07:20:09;-1.60;99.90
7174;DHT22;3628;48.654;8.932;2023-02-28T07:22:35;-1.50;99.90
7174;DHT22;3628;48.654;8.932;2023-02-28T07:25:00;-1.60;99.90
7174;DHT22;3628;48.654;8.932;2023-02-28T07:27:26;-1.50;99.90
7174;DHT22;3628;48.654;8.932;2023-02-28T07:29:52;-1.50;99.90
7174;DHT22;3628;48.654;8.932;2023-02-28T07:32:19;-1.50;99.90
7174;DHT22;3628;48.654;8.932;2023-02-28T07:34:45;-1.40;99.90
7174;DHT22;3628;48.654;8.932;2023-02-28T07:37:11;-1.30;99.90
7174;DHT22;3628;48.654;8.932;2023-02-28T07:39:36;-1.30;99.90
7174;DHT22;3628;48.654;8.932;2023-02-28T07:42:05;-1.20;99.90
7174;DHT22;3628;48.654;8.932;2023-02-28T07:44:31;-1.10;99.90
7174;DHT22;3628;48.654;8.932;2023-02-28T07:46:57;-1.10;99.90
7174;DHT22;3628;48.654;8.932;2023-02-28T07:49:23;-1.10;99.90
7174;DHT22;3628;48.654;8.932;2023-02-28T07:51:48;-1.10;99.90
7174;DHT22;3628;48.654;8.932;2023-02-28T07:54:14;-1.00;99.90
7174;DHT22;3628;48.654;8.932;2023-02-28T07:56:39;-1.00;99.90
7174;DHT22;3628;48.654;8.932;2023-02-28T07:59:05;-1.00;99.90
7174;DHT22;3628;48.654;8.932;2023-02-28T08:01:32;-1.00;99.90
7174;DHT22;3628;48.654;8.932;2023-02-28T08:03:57;-1.00;99.90
7174;DHT22;3628;48.654;8.932;2023-02-28T08:06:24;-0.90;99.90
7174;DHT22;3628;48.654;8.932;2023-02-28T08:08:51;-0.90;99.90
7174;DHT22;3628;48.654;8.932;2023-02-28T08:11:17;-0.90;99.90
7174;DHT22;3628;48.654;8.932;2023-02-28T08:13:43;-0.80;99.90
7174;DHT22;3628;48.654;8.932;2023-02-28T08:16:10;-0.80;99.90
7174;DHT22;3628;48.654;8.932;2023-02-28T08:18:35;-0.90;99.90
7174;DHT22;3628;48.654;8.932;2023-02-28T08:21:08;-1.00;99.90
7174;DHT22;3628;48.654;8.932;2023-02-28T08:23:34;-0.90;99.90
7174;DHT22;3628;48.654;8.932;2023-02-28T08:26:00;-0.90;99.90
7174;DHT22;3628;48.654;8.932;2023-02-28T08:28:26;-0.80;99.90
7174;DHT22;3628;48.654;8.932;2023-02-28T08:30:51;-0.70;99.90
7174;DHT22;3628;48.654;8.932;2023-02-28T08:33:17;-0.60;99.90
7174;DHT22;3628;48.654;8.932;2023-02-28T08:35:42;-0.70;99.90
7174;DHT22;3628;48.654;8.932;2023-02-28T08:38:08;-0.60;99.90
7174;DHT22;3628;48.654;8.932;2023-02-28T08:40:33;-0.50;99.90
7174;DHT22;3628;48.654;8.932;2023-02-28T08:42:59;-0.50;99.90
7174;DHT22;3628;48.654;8.932;2023-02-28T08:45:25;-0.50;99.90
7174;DHT22;3628;48.654;8.932;2023-02-28T08:47:50;-0.40;99.90
7174;DHT22;3628;48.654;8.932;2023-02-28T08:50:18;-0.40;99.90
7174;DHT22;3628;48.654;8.932;2023-02-28T08:52:43;-0.50;99.90
7174;DHT22;3628;48.654;8.932;2023-02-28T08:55:10;-0.50;99.90
7174;DHT22;3628;48.654;8.932;2023-02-28T08:57:35;-0.50;99.90
7174;DHT22;3628;48.654;8.932;2023-02-28T09:00:01;-0.50;99.90
7174;DHT22;3628;48.654;8.932;2023-02-28T09:02:30;-0.50;99.90
7174;DHT22;3628;48.654;8.932;2023-02-28T09:04:56;-0.40;99.90
7174;DHT22;3628;48.654;8.932;2023-02-28T09:07:22;-0.50;99.90
7174;DHT22;3628;48.654;8.932;2023-02-28T09:09:47;-0.40;99.90
7174;DHT22;3628;48.654;8.932;2023-02-28T09:12:24;-0.40;99.90
7174;DHT22;3628;48.654;8.932;2023-02-28T09:14:50;-0.40;99.90
7174;DHT22;3628;48.654;8.932;2023-02-28T09:17:16;-0.40;99.90
7174;DHT22;3628;48.654;8.932;2023-02-28T09:19:42;-0.40;99.90
7174;DHT22;3628;48.654;8.932;2023-02-28T09:22:08;-0.30;99.90
7174;DHT22;3628;48.654;8.932;2023-02-28T09:24:34;-0.30;99.90
7174;DHT22;3628;48.654;8.932;2023-02-28T09:27:00;-0.30;99.90
7174;DHT22;3628;48.654;8.932;2023-02-28T09:29:26;-0.40;99.90
7174;DHT22;3628;48.654;8.932;2023-02-28T09:31:52;-0.30;99.90
7174;DHT22;3628;48.654;8.932;2023-02-28T09:34:17;-0.30;99.90
7174;DHT22;3628;48.654;8.932;2023-02-28T09:36:43;-0.20;99.90
7174;DHT22;3628;48.654;8.932;2023-02-28T09:39:08;-0.10;99.90
7174;DHT22;3628;48.654;8.932;2023-02-28T09:41:43;0.10;99.90
7174;DHT22;3628;48.654;8.932;2023-02-28T09:44:35;0.00;99.90
7174;DHT22;3628;48.654;8.932;2023-02-28T09:47:10;0.10;99.90
7174;DHT22;3628;48.654;8.932;2023-02-28T09:49:40;0.30;99.90
7174;DHT22;3628;48.654;8.932;2023-02-28T09:52:17;0.40;99.90
7174;DHT22;3628;48.654;8.932;2023-02-28T09:54:42;0.50;99.90
7174;DHT22;3628;48.654;8.932;2023-02-28T10:00:15;0.50;99.90
7174;DHT22;3628;48.654;8.932;2023-02-28T10:05:28;0.50;99.90
7174;DHT22;3628;48.654;8.932;2023-02-28T10:08:14;0.40;99.90
7174;DHT22;3628;48.654;8.932;2023-02-28T10:10:52;0.50;99.90
7174;DHT22;3628;48.654;8.932;2023-02-28T10:13:32;0.60;99.90
7174;DHT22;3628;48.654;8.932;2023-02-28T10:16:03;0.60;99.90
7174;DHT22;3628;48.654;8.932;2023-02-28T10:18:42;0.70;99.90
7174;DHT22;3628;48.654;8.932;2023-02-28T10:21:26;0.80;99.90
7174;DHT22;3628;48.654;8.932;2023-02-28T10:24:01;1.00;99.90
7174;DHT22;3628;48.654;8.932;2023-02-28T10:26:29;1.00;99.90
7174;DHT22;3628;48.654;8.932;2023-02-28T10:28:56;1.10;99.90
7174;DHT22;3628;48.654;8.932;2023-02-28T10:31:21;1.10;99.90
7174;DHT22;3628;48.654;8.932;2023-02-28T10:33:47;1.30;99.90
7174;DHT22;3628;48.654;8.932;2023-02-28T10:36:18;1.30;99.90
7174;DHT22;3628;48.654;8.932;2023-02-28T10:38:45;1.30;99.90
7174;DHT22;3628;48.654;8.932;2023-02-28T10:41:26;1.10;99.90
7174;DHT22;3628;48.654;8.932;2023-02-28T10:43:52;1.10;99.90
7174;DHT22;3628;48.654;8.932;2023-02-28T10:46:19;1.30;99.90
7174;DHT22;3628;48.654;8.932;2023-02-28T10:49:19;1.30;99.90
7174;DHT22;3628;48.654;8.932;2023-02-28T10:51:45;1.30;99.90
7174;DHT22;3628;48.654;8.932;2023-02-28T10:54:24;1.40;99.90
7174;DHT22;3628;48.654;8.932;2023-02-28T10:57:25;1.50;99.90
7174;DHT22;3628;48.654;8.932;2023-02-28T10:59:52;1.40;99.90
7174;DHT22;3628;48.654;8.932;2023-02-28T11:02:36;1.40;99.90
7174;DHT22;3628;48.654;8.932;2023-02-28T11:05:31;1.60;99.90
7174;DHT22;3628;48.654;8.932;2023-02-28T11:08:16;1.60;99.90
7174;DHT22;3628;48.654;8.932;2023-02-28T11:10:54;1.80;99.90
7174;DHT22;3628;48.654;8.932;2023-02-28T11:13:21;1.80;99.90
7174;DHT22;3628;48.654;8.932;2023-02-28T11:15:58;1.70;99.90
7174;DHT22;3628;48.654;8.932;2023-02-28T11:18:29;1.70;99.90
7174;DHT22;3628;48.654;8.932;2023-02-28T11:20:57;1.70;99.90
7174;DHT22;3628;48.654;8.932;2023-02-28T11:23:25;1.70;99.90
7174;DHT22;3628;48.654;8.932;2023-02-28T11:25:54;1.80;99.90
7174;DHT22;3628;48.654;8.932;2023-02-28T11:28:34;2.00;99.90
7174;DHT22;3628;48.654;8.932;2023-02-28T11:31:04;2.10;99.90
7174;DHT22;3628;48.654;8.932;2023-02-28T11:33:40;2.20;99.90
7174;DHT22;3628;48.654;8.932;2023-02-28T11:36:16;2.30;99.90
7174;DHT22;3628;48.654;8.932;2023-02-28T11:38:42;2.40;99.90
7174;DHT22;3628;48.654;8.932;2023-02-28T11:41:23;2.40;99.90
7174;DHT22;3628;48.654;8.932;2023-02-28T11:49:01;2.50;99.90
7174;DHT22;3628;48.654;8.932;2023-02-28T11:51:33;2.50;99.90
7174;DHT22;3628;48.654;8.932;2023-02-28T11:54:17;2.40;99.90
7174;DHT22;3628;48.654;8.932;2023-02-28T11:56:51;2.50;99.90
7174;DHT22;3628;48.654;8.932;2023-02-28T12:10:51;2.80;99.90
7174;DHT22;3628;48.654;8.932;2023-02-28T12:13:24;3.00;99.90
7174;DHT22;3628;48.654;8.932;2023-02-28T12:26:43;4.30;99.90
7174;DHT22;3628;48.654;8.932;2023-02-28T12:31:47;4.90;99.90
7174;DHT22;3628;48.654;8.932;2023-02-28T12:34:22;5.30;99.90
7174;DHT22;3628;48.654;8.932;2023-02-28T12:36:52;5.60;99.90
7174;DHT22;3628;48.654;8.932;2023-02-28T12:39:32;5.20;98.00
7174;DHT22;3628;48.654;8.932;2023-02-28T12:42:07;5.00;99.40
7174;DHT22;3628;48.654;8.932;2023-02-28T12:44:43;5.00;98.70
7174;DHT22;3628;48.654;8.932;2023-02-28T12:47:14;4.70;99.90
7174;DHT22;3628;48.654;8.932;2023-02-28T12:49:51;4.50;99.90
7174;DHT22;3628;48.654;8.932;2023-02-28T12:52:35;4.30;99.80
7174;DHT22;3628;48.654;8.932;2023-02-28T12:55:23;3.80;99.70
7174;DHT22;3628;48.654;8.932;2023-02-28T12:58:34;3.70;99.90
7174;DHT22;3628;48.654;8.932;2023-02-28T13:01:13;3.50;99.90
7174;DHT22;3628;48.654;8.932;2023-02-28T13:09:22;4.00;99.90
7174;DHT22;3628;48.654;8.932;2023-02-28T13:11:49;4.20;99.90
7174;DHT22;3628;48.654;8.932;2023-02-28T13:17:01;4.10;99.90
7174;DHT22;3628;48.654;8.932;2023-02-28T13:19:33;4.20;99.30
7174;DHT22;3628;48.654;8.932;2023-02-28T13:22:01;4.30;99.90
7174;DHT22;3628;48.654;8.932;2023-02-28T13:24:37;4.30;99.90
7174;DHT22;3628;48.654;8.932;2023-02-28T13:29:34;4.80;99.90
7174;DHT22;3628;48.654;8.932;2023-02-28T13:34:32;4.90;98.60
7174;DHT22;3628;48.654;8.932;2023-02-28T13:39:56;4.60;98.40
7174;DHT22;3628;48.654;8.932;2023-02-28T13:47:44;4.90;98.50
7174;DHT22;3628;48.654;8.932;2023-02-28T13:50:24;5.20;98.70
7174;DHT22;3628;48.654;8.932;2023-02-28T13:53:13;5.30;95.80
7174;DHT22;3628;48.654;8.932;2023-02-28T14:06:34;4.50;96.20
7174;DHT22;3628;48.654;8.932;2023-02-28T14:11:35;4.30;96.60
7174;DHT22;3628;48.654;8.932;2023-02-28T14:14:02;4.60;98.10
7174;DHT22;3628;48.654;8.932;2023-02-28T14:16:46;4.70;97.70
7174;DHT22;3628;48.654;8.932;2023-02-28T14:19:27;5.00;97.60
7174;DHT22;3628;48.654;8.932;2023-02-28T14:41:37;4.80;95.90
7174;DHT22;3628;48.654;8.932;2023-02-28T14:44:19;4.70;96.10
7174;DHT22;3628;48.654;8.932;2023-02-28T14:46:48;4.70;96.00
7174;DHT22;3628;48.654;8.932;2023-02-28T14:49:20;4.70;95.90
7174;DHT22;3628;48.654;8.932;2023-02-28T14:51:49;4.60;97.70
7174;DHT22;3628;48.654;8.932;2023-02-28T14:54:24;4.70;96.30
7174;DHT22;3628;48.654;8.932;2023-02-28T14:56:50;4.70;95.60
7174;DHT22;3628;48.654;8.932;2023-02-28T14:59:28;4.80;96.00
7174;DHT22;3628;48.654;8.932;2023-02-28T15:02:14;4.90;95.70
7174;DHT22;3628;48.654;8.932;2023-02-28T15:04:40;5.00;96.30
7174;DHT22;3628;48.654;8.932;2023-02-28T15:07:09;5.10;96.40
7174;DHT22;3628;48.654;8.932;2023-02-28T15:09:34;5.20;95.60
7174;DHT22;3628;48.654;8.932;2023-02-28T15:12:00;5.10;94.90
7174;DHT22;3628;48.654;8.932;2023-02-28T15:14:27;5.10;94.60
7174;DHT22;3628;48.654;8.932;2023-02-28T15:16:58;5.20;94.80
7174;DHT22;3628;48.654;8.932;2023-02-28T15:19:34;5.20;94.60
7174;DHT22;3628;48.654;8.932;2023-02-28T15:22:06;5.30;95.30
7174;DHT22;3628;48.654;8.932;2023-02-28T15:24:41;5.20;94.20
7174;DHT22;3628;48.654;8.932;2023-02-28T15:27:12;5.20;95.60
7174;DHT22;3628;48.654;8.932;2023-02-28T15:29:48;5.10;94.60
7174;DHT22;3628;48.654;8.932;2023-02-28T15:32:38;5.10;94.30
7174;DHT22;3628;48.654;8.932;2023-02-28T15:38:02;5.30;95.50
7174;DHT22;3628;48.654;8.932;2023-02-28T15:40:46;5.10;93.70
7174;DHT22;3628;48.654;8.932;2023-02-28T15:43:39;4.90;94.10
7174;DHT22;3628;48.654;8.932;2023-02-28T15:46:10;4.70;94.90
7174;DHT22;3628;48.654;8.932;2023-02-28T15:48:43;4.70;95.20
7174;DHT22;3628;48.654;8.932;2023-02-28T15:51:21;4.70;95.10
7174;DHT22;3628;48.654;8.932;2023-02-28T15:54:04;4.70;94.90
7174;DHT22;3628;48.654;8.932;2023-02-28T15:56:32;4.80;95.00
7174;DHT22;3628;48.654;8.932;2023-02-28T15:59:03;4.60;94.90
7174;DHT22;3628;48.654;8.932;2023-02-28T16:01:36;4.50;94.40
7174;DHT22;3628;48.654;8.932;2023-02-28T16:04:05;4.50;95.40
7174;DHT22;3628;48.654;8.932;2023-02-28T16:08:59;4.40;95.20
7174;DHT22;3628;48.654;8.932;2023-02-28T16:11:25;4.40;96.20
7174;DHT22;3628;48.654;8.932;2023-02-28T16:13:51;4.40;96.60
7174;DHT22;3628;48.654;8.932;2023-02-28T16:16:19;4.40;96.40
7174;DHT22;3628;48.654;8.932;2023-02-28T16:18:45;4.50;95.90
7174;DHT22;3628;48.654;8.932;2023-02-28T16:21:11;4.40;95.90
7174;DHT22;3628;48.654;8.932;2023-02-28T16:23:36;4.30;95.90
7174;DHT22;3628;48.654;8.932;2023-02-28T16:26:03;4.30;96.20
7174;DHT22;3628;48.654;8.932;2023-02-28T16:28:31;4.20;95.60
7174;DHT22;3628;48.654;8.932;2023-02-28T16:31:00;4.30;96.40
7174;DHT22;3628;48.654;8.932;2023-02-28T16:33:28;4.30;96.30
7174;DHT22;3628;48.654;8.932;2023-02-28T16:35:53;4.30;95.70
7174;DHT22;3628;48.654;8.932;2023-02-28T16:38:19;4.30;95.90
7174;DHT22;3628;48.654;8.932;2023-02-28T16:40:45;4.40;95.80
7174;DHT22;3628;48.654;8.932;2023-02-28T16:43:16;4.40;96.30
7174;DHT22;3628;48.654;8.932;2023-02-28T16:45:42;4.30;95.40
7174;DHT22;3628;48.654;8.932;2023-02-28T16:48:13;4.20;95.80
7174;DHT22;3628;48.654;8.932;2023-02-28T16:50:38;4.10;95.90
7174;DHT22;3628;48.654;8.932;2023-02-28T16:53:04;4.00;96.50
7174;DHT22;3628;48.654;8.932;2023-02-28T16:55:30;3.80;96.40
7174;DHT22;3628;48.654;8.932;2023-02-28T16:58:00;3.70;97.40
7174;DHT22;3628;48.654;8.932;2023-02-28T17:00:28;3.60;97.40
7174;DHT22;3628;48.654;8.932;2023-02-28T17:02:54;3.50;98.10
7174;DHT22;3628;48.654;8.932;2023-02-28T17:05:20;3.40;98.30
7174;DHT22;3628;48.654;8.932;2023-02-28T17:07:47;3.40;98.70
7174;DHT22;3628;48.654;8.932;2023-02-28T17:10:17;3.30;98.80
7174;DHT22;3628;48.654;8.932;2023-02-28T17:12:43;3.20;99.40
7174;DHT22;3628;48.654;8.932;2023-02-28T17:15:10;3.20;99.90
7174;DHT22;3628;48.654;8.932;2023-02-28T17:17:36;3.10;99.90
7174;DHT22;3628;48.654;8.932;2023-02-28T17:20:03;3.00;99.90
7174;DHT22;3628;48.654;8.932;2023-02-28T17:22:29;3.00;99.90
7174;DHT22;3628;48.654;8.932;2023-02-28T17:24:55;3.00;99.90
7174;DHT22;3628;48.654;8.932;2023-02-28T17:27:21;2.90;99.90
7174;DHT22;3628;48.654;8.932;2023-02-28T17:29:46;2.90;99.90
7174;DHT22;3628;48.654;8.932;2023-02-28T17:32:12;2.80;99.90
7174;DHT22;3628;48.654;8.932;2023-02-28T17:34:38;2.80;99.90
7174;DHT22;3628;48.654;8.932;2023-02-28T17:37:03;2.70;99.90
7174;DHT22;3628;48.654;8.932;2023-02-28T17:39:29;2.70;99.90
7174;DHT22;3628;48.654;8.932;2023-02-28T17:41:56;2.60;99.90
7174;DHT22;3628;48.654;8.932;2023-02-28T17:44:22;2.60;99.90
7174;DHT22;3628;48.654;8.932;2023-02-28T17:46:49;2.60;99.90
7174;DHT22;3628;48.654;8.932;2023-02-28T17:49:16;2.60;99.90
7174;DHT22;3628;48.654;8.932;2023-02-28T17:51:42;2.50;99.90
7174;DHT22;3628;48.654;8.932;2023-02-28T17:54:07;2.50;99.90
7174;DHT22;3628;48.654;8.932;2023-02-28T17:56:33;2.40;99.90
7174;DHT22;3628;48.654;8.932;2023-02-28T17:58:58;2.40;99.90
7174;DHT22;3628;48.654;8.932;2023-02-28T18:01:25;2.40;99.90
7174;DHT22;3628;48.654;8.932;2023-02-28T18:03:51;2.40;99.90
7174;DHT22;3628;48.654;8.932;2023-02-28T18:06:30;2.30;99.90
7174;DHT22;3628;48.654;8.932;2023-02-28T18:08:58;2.30;99.90
7174;DHT22;3628;48.654;8.932;2023-02-28T18:11:24;2.30;99.90
7174;DHT22;3628;48.654;8.932;2023-02-28T18:13:52;2.20;99.90
7174;DHT22;3628;48.654;8.932;2023-02-28T18:16:19;2.20;99.90
7174;DHT22;3628;48.654;8.932;2023-02-28T18:18:46;2.20;99.90
7174;DHT22;3628;48.654;8.932;2023-02-28T18:21:12;2.20;99.90
7174;DHT22;3628;48.654;8.932;2023-02-28T18:23:39;2.10;99.90
7174;DHT22;3628;48.654;8.932;2023-02-28T18:26:13;2.10;99.90
7174;DHT22;3628;48.654;8.932;2023-02-28T18:28:39;2.00;99.90
7174;DHT22;3628;48.654;8.932;2023-02-28T18:31:07;2.00;99.90
7174;DHT22;3628;48.654;8.932;2023-02-28T18:33:34;2.00;99.90